createdAt,value
2018-11-07T00:00:34.217Z,41.84
2018-11-07T00:01:34.227Z,39.46
2018-11-07T00:02:34.219Z,37.84
2018-11-07T00:03:34.254Z,39.86
2018-11-07T00:04:34.211Z,42.91
2018-11-07T00:05:34.230Z,43.01
2018-11-07T00:06:34.216Z,43.20
2018-11-07T00:07:34.206Z,44.51
2018-11-07T00:08:34.324Z,42.13
2018-11-07T00:09:34.211Z,41.75
2018-11-07T00:10:34.196Z,42.99
2018-11-07T00:11:34.205Z,42.13
2018-11-07T00:12:34.205Z,44.23
2018-11-07T00:13:34.239Z,42.99
2018-11-07T00:14:34.206Z,41.36
2018-11-07T00:15:34.203Z,42.03
2018-11-07T00:16:34.202Z,40.03
2018-11-07T00:17:34.211Z,41.56
2018-11-07T00:18:34.220Z,36.58
2018-11-07T00:19:34.230Z,28.01
2018-11-07T00:20:34.205Z,21.81
2018-11-07T00:21:34.178Z,22.19
2018-11-07T00:22:34.196Z,24.01
2018-11-07T00:23:34.191Z,20.96
2018-11-07T00:24:34.162Z,20.20
2018-11-07T00:25:34.201Z,16.38
2018-11-07T00:26:34.187Z,14.85
2018-11-07T00:27:34.173Z,14.18
2018-11-07T00:28:34.203Z,13.71
2018-11-07T00:29:34.178Z,8.66
2018-11-07T00:30:34.150Z,2.09
2018-11-07T00:31:34.165Z,0.00
2018-11-07T00:32:34.157Z,0.00
2018-11-07T00:33:34.174Z,0.00
2018-11-07T00:34:34.165Z,0.00
2018-11-07T00:35:34.154Z,0.00
2018-11-07T00:36:34.124Z,0.00
2018-11-07T00:37:34.186Z,0.00
2018-11-07T00:38:34.159Z,0.00
2018-11-07T00:39:34.190Z,0.00
2018-11-07T00:40:34.138Z,0.00
2018-11-07T00:41:34.122Z,0.00
2018-11-07T00:42:34.124Z,0.00
2018-11-07T00:43:34.148Z,0.00
2018-11-07T00:44:34.129Z,0.00
2018-11-07T00:45:34.144Z,0.00
2018-11-07T00:46:34.117Z,0.00
2018-11-07T00:47:34.145Z,0.00
2018-11-07T00:48:34.112Z,0.00
2018-11-07T00:49:34.143Z,0.00
2018-11-07T00:50:34.111Z,0.00
2018-11-07T00:51:34.109Z,0.00
2018-11-07T00:52:34.099Z,0.00
2018-11-07T00:53:34.133Z,0.00
2018-11-07T00:54:34.094Z,0.00
2018-11-07T00:55:34.098Z,0.00
2018-11-07T00:56:34.091Z,0.00
2018-11-07T00:57:34.081Z,0.00
2018-11-07T00:58:34.111Z,0.00
2018-11-07T00:59:34.075Z,0.00
2018-11-07T01:00:34.098Z,0.00
2018-11-07T01:01:34.089Z,0.00
2018-11-07T01:02:34.092Z,0.00
2018-11-07T01:03:34.115Z,0.00
2018-11-07T01:04:34.073Z,2.19
2018-11-07T01:05:34.060Z,3.05
2018-11-07T01:06:34.464Z,2.57
2018-11-07T01:07:34.051Z,5.43
2018-11-07T01:08:34.079Z,8.09
2018-11-07T01:09:34.132Z,8.57
2018-11-07T01:10:34.041Z,10.00
2018-11-07T01:11:34.069Z,9.91
2018-11-07T01:12:34.032Z,11.33
2018-11-07T01:13:34.062Z,10.96
2018-11-07T01:14:34.041Z,10.10
2018-11-07T01:15:34.046Z,11.81
2018-11-07T01:16:34.064Z,11.62
2018-11-07T01:17:34.050Z,12.86
2018-11-07T01:18:34.051Z,11.24
2018-11-07T01:19:34.039Z,12.86
2018-11-07T01:20:34.024Z,15.34
2018-11-07T01:21:34.014Z,15.63
2018-11-07T01:22:34.027Z,16.58
2018-11-07T01:23:34.047Z,17.72
2018-11-07T01:24:34.017Z,18.01
2018-11-07T01:25:34.007Z,17.72
2018-11-07T01:26:34.011Z,18.48
2018-11-07T01:27:33.997Z,19.34
2018-11-07T01:28:34.029Z,20.87
2018-11-07T01:29:33.997Z,22.29
2018-11-07T01:30:34.012Z,23.34
2018-11-07T01:31:34.941Z,22.48
2018-11-07T01:32:34.017Z,20.86
2018-11-07T01:33:34.030Z,21.24
2018-11-07T01:34:33.998Z,23.24
2018-11-07T01:35:34.001Z,22.48
2018-11-07T01:36:33.991Z,20.29
2018-11-07T01:37:33.987Z,21.34
2018-11-07T01:38:34.016Z,22.48
2018-11-07T01:39:33.972Z,22.77
2018-11-07T01:40:33.976Z,21.81
2018-11-07T01:41:33.992Z,22.39
2018-11-07T01:42:34.004Z,22.29
2018-11-07T01:43:33.973Z,22.00
2018-11-07T01:44:33.951Z,21.72
2018-11-07T01:45:33.990Z,21.44
2018-11-07T01:46:33.978Z,22.86
2018-11-07T01:47:33.994Z,22.86
2018-11-07T01:48:33.946Z,24.96
2018-11-07T01:49:33.962Z,23.91
2018-11-07T01:50:34.002Z,24.01
2018-11-07T01:51:33.948Z,22.86
2018-11-07T01:52:34.461Z,22.96
2018-11-07T01:53:33.938Z,23.63
2018-11-07T01:54:33.944Z,23.72
2018-11-07T01:55:33.942Z,22.67
2018-11-07T01:56:33.950Z,22.19
2018-11-07T01:57:33.970Z,23.05
2018-11-07T01:58:33.937Z,23.15
2018-11-07T01:59:33.911Z,22.19
2018-11-07T02:00:33.928Z,23.04
2018-11-07T02:01:33.939Z,22.10
2018-11-07T02:02:33.948Z,23.34
2018-11-07T02:03:33.908Z,24.58
2018-11-07T02:04:33.935Z,25.33
2018-11-07T02:05:33.918Z,22.67
2018-11-07T02:06:33.913Z,22.48
2018-11-07T02:07:33.932Z,23.61
2018-11-07T02:08:33.927Z,23.34
2018-11-07T02:09:33.916Z,23.14
2018-11-07T02:10:33.930Z,23.04
2018-11-07T02:11:33.899Z,22.94
2018-11-07T02:12:33.933Z,21.99
2018-11-07T02:13:48.432Z,22.28
2018-11-07T02:14:33.885Z,21.04
2018-11-07T02:15:33.918Z,19.42
2018-11-07T02:16:33.899Z,17.90
2018-11-07T02:17:33.912Z,17.80
2018-11-07T02:18:33.907Z,16.47
2018-11-07T02:19:33.878Z,15.61
2018-11-07T02:20:33.900Z,14.85
2018-11-07T02:21:33.868Z,14.37
2018-11-07T02:22:33.892Z,14.37
2018-11-07T02:23:33.851Z,12.46
2018-11-07T02:24:33.852Z,8.28
2018-11-07T02:25:33.859Z,5.04
2018-11-07T02:26:33.939Z,3.42
2018-11-07T02:27:33.889Z,3.42
2018-11-07T02:28:33.849Z,2.28
2018-11-07T02:29:33.864Z,4.19
2018-11-07T02:30:33.838Z,2.38
2018-11-07T02:31:33.856Z,3.71
2018-11-07T02:32:33.881Z,4.47
2018-11-07T02:33:33.836Z,5.14
2018-11-07T02:34:55.467Z,8.09
2018-11-07T02:35:33.886Z,6.95
2018-11-07T02:36:33.865Z,4.19
2018-11-07T02:37:33.817Z,2.86
2018-11-07T02:38:33.845Z,3.90
2018-11-07T02:39:33.819Z,5.24
2018-11-07T02:40:33.815Z,5.52
2018-11-07T02:41:33.868Z,5.99
2018-11-07T02:42:33.826Z,6.56
2018-11-07T02:43:33.835Z,3.99
2018-11-07T02:44:33.804Z,5.52
2018-11-07T02:45:33.812Z,5.33
2018-11-07T02:46:33.800Z,4.66
2018-11-07T02:47:33.786Z,5.52
2018-11-07T02:48:33.839Z,5.42
2018-11-07T02:49:33.804Z,5.71
2018-11-07T02:50:33.791Z,3.52
2018-11-07T02:51:33.786Z,7.62
2018-11-07T02:52:33.816Z,10.38
2018-11-07T02:53:33.897Z,14.85
2018-11-07T02:54:33.775Z,20.95
2018-11-07T02:55:35.449Z,22.19
2018-11-07T02:56:33.779Z,26.85
2018-11-07T02:57:33.792Z,29.91
2018-11-07T02:58:33.802Z,34.20
2018-11-07T02:59:33.761Z,35.72
2018-11-07T03:00:33.779Z,38.20
2018-11-07T03:01:33.762Z,40.77
2018-11-07T03:02:33.775Z,44.68
2018-11-07T03:03:33.740Z,48.87
2018-11-07T03:04:33.740Z,50.11
2018-11-07T03:05:33.790Z,51.73
2018-11-07T03:06:33.726Z,51.16
2018-11-07T03:07:33.746Z,50.49
2018-11-07T03:08:33.796Z,50.78
2018-11-07T03:09:33.745Z,50.78
2018-11-07T03:10:33.783Z,49.92
2018-11-07T03:11:33.729Z,51.16
2018-11-07T03:12:33.723Z,50.49
2018-11-07T03:13:33.759Z,51.45
2018-11-07T03:14:33.724Z,53.25
2018-11-07T03:15:33.741Z,54.97
2018-11-07T03:16:33.715Z,54.49
2018-11-07T03:17:33.744Z,56.78
2018-11-07T03:18:33.704Z,53.64
2018-11-07T03:19:33.697Z,54.21
2018-11-07T03:20:33.739Z,55.26
2018-11-07T03:21:33.695Z,56.02
2018-11-07T03:22:33.701Z,57.54
2018-11-07T03:23:33.741Z,59.83
2018-11-07T03:24:33.700Z,59.54
2018-11-07T03:25:33.686Z,59.26
2018-11-07T03:26:33.714Z,59.06
2018-11-07T03:27:33.695Z,59.64
2018-11-07T03:28:33.718Z,59.64
2018-11-07T03:29:33.676Z,58.21
2018-11-07T03:30:33.695Z,56.97
2018-11-07T03:31:33.676Z,54.97
2018-11-07T03:32:33.673Z,55.73
2018-11-07T03:33:33.716Z,56.11
2018-11-07T03:34:34.441Z,59.54
2018-11-07T03:35:33.660Z,59.64
2018-11-07T03:36:33.653Z,58.30
2018-11-07T03:37:33.667Z,59.45
2018-11-07T03:38:33.692Z,60.40
2018-11-07T03:39:33.758Z,59.45
2018-11-07T03:40:33.662Z,59.64
2018-11-07T03:41:33.642Z,61.07
2018-11-07T03:42:33.648Z,60.97
2018-11-07T03:43:33.670Z,61.93
2018-11-07T03:44:33.634Z,60.69
2018-11-07T03:45:33.636Z,59.64
2018-11-07T03:46:33.638Z,61.35
2018-11-07T03:47:33.617Z,60.88
2018-11-07T03:48:33.669Z,62.21
2018-11-07T03:49:33.636Z,61.93
2018-11-07T03:50:33.624Z,60.88
2018-11-07T03:51:33.629Z,60.69
2018-11-07T03:52:33.620Z,61.83
2018-11-07T03:53:33.652Z,62.78
2018-11-07T03:54:33.613Z,63.26
2018-11-07T03:55:33.603Z,63.26
2018-11-07T03:56:33.626Z,62.88
2018-11-07T03:57:33.598Z,62.97
2018-11-07T03:58:33.619Z,61.25
2018-11-07T03:59:33.634Z,61.73
2018-11-07T04:00:33.622Z,61.45
2018-11-07T04:01:33.608Z,61.80
2018-11-07T04:02:33.583Z,59.80
2018-11-07T04:03:33.621Z,58.97
2018-11-07T04:04:33.628Z,57.99
2018-11-07T04:05:33.612Z,55.90
2018-11-07T04:06:33.585Z,55.13
2018-11-07T04:07:33.578Z,55.04
2018-11-07T04:08:33.596Z,54.75
2018-11-07T04:09:33.588Z,54.75
2018-11-07T04:10:33.561Z,54.37
2018-11-07T04:11:33.557Z,54.66
2018-11-07T04:12:33.569Z,53.70
2018-11-07T04:13:33.589Z,53.70
2018-11-07T04:14:33.571Z,52.66
2018-11-07T04:15:33.569Z,53.42
2018-11-07T04:16:34.444Z,53.52
2018-11-07T04:17:33.541Z,53.32
2018-11-07T04:18:33.577Z,52.18
2018-11-07T04:19:33.578Z,51.42
2018-11-07T04:20:33.546Z,51.42
2018-11-07T04:21:33.582Z,50.46
2018-11-07T04:22:33.530Z,49.99
2018-11-07T04:23:33.580Z,49.51
2018-11-07T04:24:33.515Z,47.32
2018-11-07T04:25:33.556Z,47.89
2018-11-07T04:26:33.547Z,48.27
2018-11-07T04:27:33.525Z,48.18
2018-11-07T04:28:33.566Z,46.75
2018-11-07T04:29:33.532Z,48.56
2018-11-07T04:30:33.529Z,49.13
2018-11-07T04:31:33.510Z,49.71
2018-11-07T04:32:33.522Z,49.42
2018-11-07T04:33:33.539Z,49.04
2018-11-07T04:34:33.499Z,48.94
2018-11-07T04:35:33.495Z,47.89
2018-11-07T04:36:33.510Z,48.66
2018-11-07T04:37:34.455Z,50.56
2018-11-07T04:38:33.511Z,48.85
2018-11-07T04:39:33.483Z,47.89
2018-11-07T04:40:33.508Z,49.90
2018-11-07T04:41:33.479Z,49.90
2018-11-07T04:42:33.472Z,51.61
2018-11-07T04:43:33.505Z,50.75
2018-11-07T04:44:33.464Z,50.75
2018-11-07T04:45:33.469Z,49.61
2018-11-07T04:46:33.486Z,51.42
2018-11-07T04:47:33.473Z,51.42
2018-11-07T04:48:33.499Z,49.71
2018-11-07T04:49:33.448Z,48.47
2018-11-07T04:50:33.465Z,48.75
2018-11-07T04:51:33.450Z,45.89
2018-11-07T04:52:33.453Z,46.56
2018-11-07T04:53:33.474Z,48.47
2018-11-07T04:54:33.459Z,48.66
2018-11-07T04:55:33.443Z,48.94
2018-11-07T04:56:33.455Z,48.66
2018-11-07T04:57:33.436Z,49.32
2018-11-07T04:58:33.475Z,47.42
2018-11-07T04:59:33.421Z,46.75
2018-11-07T05:00:33.417Z,48.08
2018-11-07T05:01:33.420Z,46.94
2018-11-07T05:02:33.425Z,47.13
2018-11-07T05:03:33.451Z,45.49
2018-11-07T05:04:33.437Z,44.27
2018-11-07T05:05:33.411Z,42.92
2018-11-07T05:06:33.412Z,41.49
2018-11-07T05:07:33.427Z,40.83
2018-11-07T05:08:33.487Z,38.64
2018-11-07T05:09:33.438Z,38.17
2018-11-07T05:10:33.393Z,38.17
2018-11-07T05:11:33.391Z,36.64
2018-11-07T05:12:33.401Z,36.35
2018-11-07T05:13:33.428Z,36.45
2018-11-07T05:14:33.406Z,36.83
2018-11-07T05:15:33.405Z,36.45
2018-11-07T05:16:33.389Z,36.64
2018-11-07T05:17:33.371Z,36.16
2018-11-07T05:18:54.401Z,34.36
2018-11-07T05:19:33.407Z,33.69
2018-11-07T05:20:33.373Z,32.17
2018-11-07T05:21:33.403Z,30.26
2018-11-07T05:22:33.354Z,30.93
2018-11-07T05:23:33.419Z,30.83
2018-11-07T05:24:33.359Z,28.83
2018-11-07T05:25:33.347Z,28.08
2018-11-07T05:26:33.369Z,27.69
2018-11-07T05:27:33.350Z,26.74
2018-11-07T05:28:33.417Z,26.26
2018-11-07T05:29:33.335Z,26.07
2018-11-07T05:30:33.335Z,25.79
2018-11-07T05:31:33.330Z,25.60
2018-11-07T05:32:33.353Z,23.89
2018-11-07T05:33:33.373Z,23.89
2018-11-07T05:34:33.340Z,23.69
2018-11-07T05:35:33.314Z,22.46
2018-11-07T05:36:33.313Z,21.98
2018-11-07T05:37:33.361Z,22.27
2018-11-07T05:38:33.306Z,20.84
2018-11-07T05:39:37.961Z,19.98
2018-11-07T05:40:33.332Z,20.56
2018-11-07T05:41:33.330Z,19.70
2018-11-07T05:42:33.393Z,19.42
2018-11-07T05:43:33.292Z,18.94
2018-11-07T05:44:33.292Z,18.65
2018-11-07T05:45:33.286Z,19.22
2018-11-07T05:46:33.341Z,18.46
2018-11-07T05:47:33.313Z,19.03
2018-11-07T05:48:33.305Z,18.74
2018-11-07T05:49:33.294Z,17.80
2018-11-07T05:50:33.296Z,17.51
2018-11-07T05:51:33.285Z,17.03
2018-11-07T05:52:33.306Z,17.60
2018-11-07T05:53:33.270Z,16.46
2018-11-07T05:54:33.289Z,16.94
2018-11-07T05:55:33.261Z,17.41
2018-11-07T05:56:33.248Z,15.61
2018-11-07T05:57:33.275Z,15.88
2018-11-07T05:58:33.274Z,15.89
2018-11-07T05:59:33.246Z,15.13
2018-11-07T06:00:33.260Z,15.70
2018-11-07T06:01:33.238Z,16.17
2018-11-07T06:02:33.287Z,15.70
2018-11-07T06:03:33.222Z,15.32
2018-11-07T06:04:33.247Z,14.94
2018-11-07T06:05:33.214Z,13.70
2018-11-07T06:06:33.216Z,14.07
2018-11-07T06:07:33.250Z,13.42
2018-11-07T06:08:33.248Z,12.94
2018-11-07T06:09:33.222Z,12.94
2018-11-07T06:10:33.210Z,12.46
2018-11-07T06:11:33.206Z,12.65
2018-11-07T06:12:33.252Z,11.04
2018-11-07T06:13:33.211Z,9.99
2018-11-07T06:14:33.206Z,8.94
2018-11-07T06:15:33.197Z,7.60
2018-11-07T06:16:33.184Z,5.99
2018-11-07T06:17:33.207Z,5.13
2018-11-07T06:18:33.188Z,4.18
2018-11-07T06:19:33.221Z,4.28
2018-11-07T06:22:04.837Z,3.70
2018-11-07T06:23:04.900Z,2.75
2018-11-07T06:24:04.807Z,2.66
2018-11-07T06:25:04.805Z,2.00
2018-11-07T06:26:04.793Z,1.81
2018-11-07T06:27:04.796Z,1.42
2018-11-07T06:28:04.818Z,1.42
2018-11-07T06:29:04.786Z,1.04
2018-11-07T06:30:04.781Z,1.14
2018-11-07T06:31:04.782Z,1.52
2018-11-07T06:32:04.780Z,2.00
2018-11-07T06:33:04.809Z,2.00
2018-11-07T06:34:04.852Z,2.57
2018-11-07T06:35:04.766Z,3.80
2018-11-07T06:36:04.767Z,5.52
2018-11-07T06:37:04.786Z,5.14
2018-11-07T06:38:04.757Z,6.18
2018-11-07T06:39:04.753Z,5.71
2018-11-07T06:40:04.752Z,7.32
2018-11-07T06:41:04.749Z,5.52
2018-11-07T06:42:04.810Z,5.23
2018-11-07T06:43:04.746Z,4.38
2018-11-07T06:44:04.744Z,6.95
2018-11-07T06:45:04.738Z,6.66
2018-11-07T06:46:04.734Z,11.79
2018-11-07T06:47:04.762Z,16.64
2018-11-07T06:48:04.726Z,5.90
2018-11-07T06:49:04.722Z,4.66
2018-11-07T06:50:04.719Z,4.09
2018-11-07T06:51:04.721Z,0.00
2018-11-07T06:52:04.742Z,0.00
2018-11-07T06:53:04.714Z,0.00
2018-11-07T06:54:04.706Z,0.00
2018-11-07T06:55:04.714Z,2.28
2018-11-07T06:56:04.708Z,0.00
2018-11-07T06:57:04.728Z,0.00
2018-11-07T06:58:04.701Z,5.99
2018-11-07T06:59:04.690Z,9.60
2018-11-07T07:00:04.693Z,10.36
2018-11-07T07:01:04.705Z,8.75
2018-11-07T07:02:04.721Z,5.61
2018-11-07T07:03:04.679Z,4.28
2018-11-07T07:04:04.679Z,4.08
2018-11-07T07:05:04.676Z,6.56
2018-11-07T07:06:04.667Z,3.42
2018-11-07T07:07:04.697Z,2.09
2018-11-07T07:08:04.665Z,1.23
2018-11-07T07:09:04.663Z,0.00
2018-11-07T07:10:04.661Z,0.76
2018-11-07T07:11:04.655Z,2.37
2018-11-07T07:12:04.686Z,1.33
2018-11-07T07:13:04.652Z,0.19
2018-11-07T07:14:04.645Z,0.00
2018-11-07T07:15:04.645Z,0.00
2018-11-07T07:16:04.647Z,0.19
2018-11-07T07:17:04.667Z,6.46
2018-11-07T07:18:04.720Z,0.67
2018-11-07T07:19:04.631Z,0.00
2018-11-07T07:20:04.635Z,8.94
2018-11-07T07:21:04.628Z,11.32
2018-11-07T07:22:04.694Z,7.23
2018-11-07T07:23:04.624Z,15.05
2018-11-07T07:24:04.623Z,20.09
2018-11-07T07:25:04.621Z,24.57
2018-11-07T07:26:04.615Z,25.42
2018-11-07T07:27:04.640Z,27.51
2018-11-07T07:28:04.612Z,29.42
2018-11-07T07:29:04.609Z,36.08
2018-11-07T07:30:04.697Z,39.61
2018-11-07T07:31:04.610Z,44.59
2018-11-07T07:32:04.632Z,60.69
2018-11-07T07:33:04.669Z,65.64
2018-11-07T07:34:04.603Z,74.54
2018-11-07T07:35:04.596Z,82.78
2018-11-07T07:36:04.596Z,87.07
2018-11-07T07:37:04.625Z,87.93
2018-11-07T07:38:04.593Z,99.99
2018-11-07T07:39:04.597Z,86.49
2018-11-07T07:40:04.592Z,91.13
2018-11-07T07:41:04.593Z,86.21
2018-11-07T07:42:04.625Z,94.60
2018-11-07T07:43:04.589Z,96.80
2018-11-07T07:44:04.613Z,91.64
2018-11-07T07:45:04.586Z,99.99
2018-11-07T07:46:04.593Z,96.51
2018-11-07T07:47:04.589Z,99.99
2018-11-07T07:48:04.622Z,99.75
2018-11-07T07:49:04.655Z,99.99
2018-11-07T07:50:04.594Z,98.42
2018-11-07T07:51:04.590Z,99.46
2018-11-07T07:52:04.594Z,99.99
2018-11-07T07:53:04.628Z,97.56
2018-11-07T07:54:04.594Z,99.99
2018-11-07T07:55:04.597Z,99.99
2018-11-07T07:56:04.604Z,99.99
2018-11-07T07:57:04.595Z,91.88
2018-11-07T07:58:04.626Z,99.99
2018-11-07T07:59:04.598Z,99.99
2018-11-07T08:00:04.604Z,99.99
2018-11-07T08:01:04.603Z,99.99
2018-11-07T08:02:04.603Z,99.99
2018-11-07T08:03:04.634Z,99.99
2018-11-07T08:04:04.607Z,99.99
2018-11-07T08:05:04.608Z,99.99
2018-11-07T08:06:04.610Z,99.99
2018-11-07T08:07:04.678Z,99.99
2018-11-07T08:08:04.642Z,99.99
2018-11-07T08:09:04.614Z,99.99
2018-11-07T08:10:04.618Z,99.99
2018-11-07T08:11:04.624Z,99.99
2018-11-07T08:12:04.622Z,99.99
2018-11-07T08:13:04.654Z,99.99
2018-11-07T08:14:04.713Z,99.99
2018-11-07T08:15:04.627Z,99.99
2018-11-07T08:16:04.633Z,99.99
2018-11-07T08:17:04.664Z,99.99
2018-11-07T08:18:04.643Z,99.99
2018-11-07T08:19:04.637Z,99.99
2018-11-07T08:20:04.646Z,99.99
2018-11-07T08:21:04.713Z,99.99
2018-11-07T08:22:04.681Z,99.99
2018-11-07T08:23:04.651Z,99.99
2018-11-07T08:24:04.656Z,99.99
2018-11-07T08:25:04.671Z,99.99
2018-11-07T08:26:04.677Z,99.99
2018-11-07T08:27:04.716Z,99.99
2018-11-07T08:28:04.668Z,99.99
2018-11-07T08:29:04.695Z,99.99
2018-11-07T08:30:04.672Z,99.99
2018-11-07T08:31:04.748Z,99.99
2018-11-07T08:32:04.703Z,99.99
2018-11-07T08:33:04.680Z,99.99
2018-11-07T08:34:04.685Z,99.99
2018-11-07T08:35:04.681Z,99.99
2018-11-07T08:36:04.686Z,99.99
2018-11-07T08:37:04.717Z,99.99
2018-11-07T08:38:04.698Z,99.99
2018-11-07T08:39:04.702Z,99.99
2018-11-07T08:40:04.700Z,99.99
2018-11-07T08:41:04.700Z,99.99
2018-11-07T08:42:04.748Z,99.99
2018-11-07T08:43:04.705Z,99.99
2018-11-07T08:44:04.707Z,99.99
2018-11-07T08:45:04.742Z,99.99
2018-11-07T08:46:04.712Z,99.99
2018-11-07T08:47:04.724Z,99.99
2018-11-07T08:48:04.804Z,99.99
2018-11-07T08:49:04.725Z,99.99
2018-11-07T08:50:04.726Z,99.99
2018-11-07T08:51:04.729Z,99.99
2018-11-07T08:52:04.735Z,99.99
2018-11-07T08:53:04.766Z,99.99
2018-11-07T08:54:06.366Z,99.99
2018-11-07T08:55:04.794Z,99.99
2018-11-07T08:56:04.742Z,99.99
2018-11-07T08:57:04.800Z,99.99
2018-11-07T08:58:04.812Z,99.99
2018-11-07T08:59:04.817Z,99.99
2018-11-07T09:00:04.762Z,99.99
2018-11-07T09:01:04.809Z,99.99
2018-11-07T09:02:04.821Z,99.99
2018-11-07T09:03:04.817Z,99.99
2018-11-07T09:04:04.783Z,99.99
2018-11-07T09:05:04.786Z,99.99
2018-11-07T09:06:04.792Z,99.99
2018-11-07T09:07:04.794Z,99.99
2018-11-07T09:08:04.954Z,99.99
2018-11-07T09:09:05.292Z,99.99
2018-11-07T09:10:04.811Z,99.99
2018-11-07T09:11:04.805Z,99.99
2018-11-07T09:12:04.881Z,99.99
2018-11-07T09:13:04.855Z,99.99
2018-11-07T09:14:04.828Z,99.99
2018-11-07T09:15:04.835Z,99.99
2018-11-07T09:16:04.840Z,99.99
2018-11-07T09:17:04.848Z,99.99
2018-11-07T09:18:04.876Z,99.99
2018-11-07T09:19:04.858Z,99.99
2018-11-07T09:20:04.943Z,99.99
2018-11-07T09:21:04.852Z,99.99
2018-11-07T09:22:04.899Z,99.99
2018-11-07T09:23:04.982Z,99.99
2018-11-07T09:24:04.896Z,99.99
2018-11-07T09:25:05.800Z,99.99
2018-11-07T09:26:04.914Z,99.99
2018-11-07T09:27:04.930Z,99.99
2018-11-07T09:28:04.946Z,99.99
2018-11-07T09:29:04.977Z,99.99
2018-11-07T09:30:04.934Z,99.99
2018-11-07T09:31:04.932Z,99.99
2018-11-07T09:32:04.977Z,99.99
2018-11-07T09:33:05.000Z,99.99
2018-11-07T09:34:04.968Z,99.99
2018-11-07T09:35:04.978Z,99.99
2018-11-07T09:36:04.982Z,99.99
2018-11-07T09:37:05.060Z,99.99
2018-11-07T09:38:05.025Z,99.99
2018-11-07T09:39:05.016Z,99.99
2018-11-07T09:40:05.067Z,99.99
2018-11-07T09:41:05.061Z,99.99
2018-11-07T09:42:05.092Z,99.99
2018-11-07T09:43:05.077Z,99.99
2018-11-07T09:44:05.280Z,99.99
2018-11-07T09:45:05.163Z,99.99
2018-11-07T09:46:05.059Z,99.99
2018-11-07T09:47:05.120Z,99.99
2018-11-07T09:48:05.153Z,99.99
2018-11-07T09:49:05.084Z,99.99
2018-11-07T09:50:05.100Z,99.99
2018-11-07T09:51:05.103Z,99.99
2018-11-07T09:52:05.166Z,99.99
2018-11-07T09:53:05.146Z,99.99
2018-11-07T09:54:05.211Z,99.99
2018-11-07T09:55:05.155Z,99.99
2018-11-07T09:56:05.130Z,99.99
2018-11-07T09:57:05.155Z,99.99
2018-11-07T09:58:05.221Z,99.99
2018-11-07T09:59:05.303Z,99.99
2018-11-07T10:00:05.153Z,99.99
2018-11-07T10:01:05.161Z,99.99
2018-11-07T10:02:05.182Z,99.99
2018-11-07T10:03:05.223Z,99.99
2018-11-07T10:04:05.248Z,99.99
2018-11-07T10:05:05.207Z,99.99
2018-11-07T10:06:05.226Z,99.99
2018-11-07T10:07:05.201Z,99.99
2018-11-07T10:08:05.306Z,99.99
2018-11-07T10:09:05.233Z,99.99
2018-11-07T10:10:05.252Z,99.99
2018-11-07T10:11:05.231Z,99.99
2018-11-07T10:12:05.243Z,99.99
2018-11-07T10:13:05.282Z,99.99
2018-11-07T10:14:05.245Z,99.99
2018-11-07T10:15:05.251Z,99.99
2018-11-07T10:16:05.355Z,99.99
2018-11-07T10:17:05.272Z,99.99
2018-11-07T10:18:05.451Z,99.99
2018-11-07T10:19:05.282Z,99.99
2018-11-07T10:20:05.294Z,99.99
2018-11-07T10:21:05.296Z,99.99
2018-11-07T10:22:05.328Z,99.99
2018-11-07T10:23:06.079Z,99.99
2018-11-07T10:24:05.345Z,99.99
2018-11-07T10:25:05.587Z,99.99
2018-11-07T10:26:05.355Z,99.99
2018-11-07T10:27:05.635Z,99.99
2018-11-07T10:28:05.807Z,99.99
2018-11-07T10:29:05.537Z,99.99
2018-11-07T10:30:05.754Z,99.99
2018-11-07T10:31:05.393Z,99.99
2018-11-07T10:32:05.424Z,99.99
2018-11-07T10:33:05.389Z,99.99
2018-11-07T10:34:05.383Z,99.99
2018-11-07T10:35:05.393Z,99.99
2018-11-07T10:36:05.436Z,99.99
2018-11-07T10:37:05.417Z,99.99
2018-11-07T10:38:05.551Z,99.99
2018-11-07T10:39:05.574Z,99.99
2018-11-07T10:40:05.441Z,99.99
2018-11-07T10:41:05.555Z,99.99
2018-11-07T10:42:05.455Z,99.99
2018-11-07T10:43:05.533Z,99.99
2018-11-07T10:44:05.464Z,99.99
2018-11-07T10:45:06.545Z,99.99
2018-11-07T10:46:05.570Z,99.99
2018-11-07T10:47:05.482Z,99.99
2018-11-07T10:48:05.517Z,99.99
2018-11-07T10:49:06.324Z,99.99
2018-11-07T10:50:05.508Z,99.99
2018-11-07T10:51:05.510Z,99.99
2018-11-07T10:52:06.825Z,99.99
2018-11-07T10:53:05.558Z,99.99
2018-11-07T10:54:05.536Z,99.99
2018-11-07T10:55:05.548Z,99.99
2018-11-07T10:56:05.553Z,99.99
2018-11-07T10:57:05.558Z,99.99
2018-11-07T10:58:05.607Z,99.99
2018-11-07T10:59:06.478Z,99.99
2018-11-07T11:00:05.599Z,99.99
2018-11-07T11:01:05.605Z,99.99
2018-11-07T11:02:05.624Z,99.99
2018-11-07T11:03:05.647Z,99.99
2018-11-07T11:04:05.628Z,99.99
2018-11-07T11:05:05.638Z,99.99
2018-11-07T11:06:05.636Z,99.99
2018-11-07T11:07:05.643Z,99.99
2018-11-07T11:08:05.680Z,99.99
2018-11-07T11:09:05.666Z,99.99
2018-11-07T11:10:05.672Z,99.99
2018-11-07T11:11:05.685Z,99.99
2018-11-07T11:12:05.704Z,99.99
2018-11-07T11:13:05.860Z,99.99
2018-11-07T11:14:05.711Z,99.99
2018-11-07T11:15:05.724Z,99.99
2018-11-07T11:16:05.729Z,99.99
2018-11-07T11:17:05.845Z,99.99
2018-11-07T11:18:05.796Z,99.99
2018-11-07T11:19:05.762Z,99.99
2018-11-07T11:20:05.772Z,99.99
2018-11-07T11:21:05.788Z,99.99
2018-11-07T11:22:05.788Z,99.99
2018-11-07T11:23:05.824Z,99.99
2018-11-07T11:24:05.814Z,99.99
2018-11-07T11:25:05.821Z,99.99
2018-11-07T11:26:05.827Z,99.99
2018-11-07T11:27:05.845Z,99.99
2018-11-07T11:28:05.886Z,99.99
2018-11-07T11:29:05.861Z,99.99
2018-11-07T11:30:05.869Z,99.99
2018-11-07T11:31:05.880Z,99.99
2018-11-07T11:32:05.882Z,99.99
2018-11-07T11:33:05.925Z,99.99
2018-11-07T11:34:06.166Z,99.99
2018-11-07T11:35:06.066Z,99.99
2018-11-07T11:36:05.929Z,99.99
2018-11-07T11:37:05.966Z,99.99
2018-11-07T11:38:05.948Z,99.99
2018-11-07T11:39:05.983Z,99.99
2018-11-07T11:40:05.967Z,99.99
2018-11-07T11:41:06.031Z,99.99
2018-11-07T11:42:05.981Z,99.99
2018-11-07T11:43:06.018Z,99.99
2018-11-07T11:44:06.008Z,99.99
2018-11-07T11:45:06.014Z,99.99
2018-11-07T11:46:06.024Z,99.99
2018-11-07T11:47:06.032Z,99.99
2018-11-07T11:48:06.071Z,99.99
2018-11-07T11:49:06.125Z,99.99
2018-11-07T11:50:06.068Z,99.99
2018-11-07T11:51:06.085Z,99.99
2018-11-07T11:52:06.097Z,99.99
2018-11-07T11:53:06.131Z,99.99
2018-11-07T11:54:06.128Z,99.99
2018-11-07T11:55:06.131Z,99.99
2018-11-07T11:56:06.141Z,99.99
2018-11-07T11:57:06.147Z,99.99
2018-11-07T11:58:06.182Z,99.99
2018-11-07T11:59:06.245Z,99.99
2018-11-07T12:00:06.442Z,99.99
2018-11-07T12:01:06.194Z,99.99
2018-11-07T12:02:06.210Z,99.99
2018-11-07T12:03:06.248Z,99.99
2018-11-07T12:04:06.232Z,99.99
2018-11-07T12:05:06.247Z,99.99
2018-11-07T12:06:06.259Z,99.99
2018-11-07T12:07:06.268Z,99.99
2018-11-07T12:08:06.360Z,99.99
2018-11-07T12:09:06.295Z,99.99
2018-11-07T12:10:06.303Z,99.99
2018-11-07T12:11:06.316Z,99.99
2018-11-07T12:12:06.405Z,99.99
2018-11-07T12:13:06.368Z,99.99
2018-11-07T12:14:06.357Z,99.99
2018-11-07T12:15:06.422Z,99.99
2018-11-07T12:16:06.377Z,99.99
2018-11-07T12:17:06.386Z,99.99
2018-11-07T12:18:06.432Z,99.99
2018-11-07T12:19:06.415Z,99.99
2018-11-07T12:20:06.441Z,99.99
2018-11-07T12:21:06.478Z,99.99
2018-11-07T12:22:06.450Z,99.99
2018-11-07T12:23:06.489Z,99.99
2018-11-07T12:24:06.471Z,99.99
2018-11-07T12:25:06.481Z,99.99
2018-11-07T12:26:06.490Z,99.99
2018-11-07T12:27:06.501Z,99.99
2018-11-07T12:28:06.542Z,99.99
2018-11-07T12:29:06.527Z,99.99
2018-11-07T12:30:06.539Z,99.99
2018-11-07T12:31:06.550Z,99.99
2018-11-07T12:32:06.559Z,99.99
2018-11-07T12:33:06.606Z,99.99
2018-11-07T12:34:06.587Z,99.99
2018-11-07T12:35:06.592Z,99.99
2018-11-07T12:36:06.604Z,99.99
2018-11-07T12:37:06.614Z,99.99
2018-11-07T12:38:06.655Z,99.99
2018-11-07T12:39:06.636Z,99.99
2018-11-07T12:40:06.660Z,99.99
2018-11-07T12:41:06.662Z,99.99
2018-11-07T12:42:06.796Z,99.99
2018-11-07T12:43:06.708Z,99.99
2018-11-07T12:44:06.692Z,99.99
2018-11-07T12:45:06.700Z,99.99
2018-11-07T12:46:06.717Z,99.99
2018-11-07T12:47:06.716Z,99.99
2018-11-07T12:48:06.758Z,99.99
2018-11-07T12:49:06.745Z,99.99
2018-11-07T12:50:06.791Z,99.99
2018-11-07T12:51:06.757Z,99.99
2018-11-07T12:52:06.773Z,99.99
2018-11-07T12:53:06.811Z,99.99
2018-11-07T12:54:06.799Z,99.99
2018-11-07T12:55:06.805Z,99.99
2018-11-07T12:56:06.810Z,99.99
2018-11-07T12:57:06.877Z,99.99
2018-11-07T12:58:06.948Z,99.99
2018-11-07T12:59:06.838Z,99.99